Terminal Aerodrome Forecast
Issued by NWS

Home | Current Version | Previous Version | Text Only | Print | Product List | Glossary On
Versions: 1 2 3 4 5 6 7 8 9 10 11 12 13 14 15 16 17 18 19
000
FTUS41 KCAR 292340
TAFBHB
TAF
KBHB 292340Z 3000/3024 21008KT P6SM SCT120 BKN220
     FM301000 19010KT P6SM BKN100 OVC180
     FM301300 18012G20KT P6SM SCT040 OVC080
     FM301600 18013G22KT 6SM -SHRA OVC030
     FM301800 18014G23KT 5SM -SHRA OVC020
     FM302000 18012G20KT 3SM -SHRA OVC015
     FM302200 19009KT 6SM -SHRA OVC020
      AMD LTD TO CLD VIS AND WIND=

USA.gov is the U.S. government's official web portal to all federal, state and local government web resources and services.